createdAt,value
2019-03-12T00:00:12.494Z,14.00
2019-03-12T00:01:12.509Z,11.50
2019-03-12T00:02:12.525Z,14.40
2019-03-12T00:03:12.539Z,12.80
2019-03-12T00:04:12.555Z,12.50
2019-03-12T00:05:12.570Z,14.60
2019-03-12T00:06:12.585Z,13.20
2019-03-12T00:07:12.597Z,10.60
2019-03-12T00:08:12.611Z,9.70
2019-03-12T00:09:12.626Z,11.10
2019-03-12T00:10:12.687Z,11.40
2019-03-12T00:11:12.657Z,12.30
2019-03-12T00:12:12.678Z,13.40
2019-03-12T00:13:12.697Z,12.90
2019-03-12T00:14:12.702Z,11.00
2019-03-12T00:15:12.721Z,10.70
2019-03-12T00:16:12.729Z,12.80
2019-03-12T00:17:12.743Z,16.80
2019-03-12T00:18:12.759Z,15.40
2019-03-12T00:19:12.774Z,11.00
2019-03-12T00:20:12.789Z,12.10
2019-03-12T00:21:12.803Z,11.50
2019-03-12T00:22:12.818Z,17.40
2019-03-12T00:23:12.829Z,9.40
2019-03-12T00:24:12.850Z,8.80
2019-03-12T00:25:12.859Z,15.20
2019-03-12T00:26:12.876Z,15.20
2019-03-12T00:27:12.889Z,19.40
2019-03-12T00:28:12.901Z,14.40
2019-03-12T00:29:12.920Z,17.10
2019-03-12T00:30:12.931Z,10.10
2019-03-12T00:31:12.945Z,16.30
2019-03-12T00:32:12.962Z,20.40
2019-03-12T00:33:12.977Z,14.50
2019-03-12T00:34:12.989Z,12.50
2019-03-12T00:35:13.006Z,11.50
2019-03-12T00:36:13.020Z,11.40
2019-03-12T00:37:13.040Z,14.40
2019-03-12T00:38:13.046Z,21.80
2019-03-12T00:39:13.059Z,18.10
2019-03-12T00:40:13.077Z,10.50
2019-03-12T00:41:13.092Z,11.50
2019-03-12T00:42:13.106Z,14.70
2019-03-12T00:43:13.117Z,14.50
2019-03-12T00:44:13.132Z,16.40
2019-03-12T00:45:13.148Z,15.80
2019-03-12T00:46:13.163Z,16.20
2019-03-12T00:47:13.176Z,13.60
2019-03-12T00:48:13.197Z,13.60
2019-03-12T00:49:13.205Z,15.80
2019-03-12T00:50:13.220Z,15.20
2019-03-12T00:51:13.239Z,20.20
2019-03-12T00:52:13.245Z,19.20
2019-03-12T00:53:13.264Z,15.80
2019-03-12T00:54:13.274Z,11.30
2019-03-12T00:55:13.292Z,15.10
2019-03-12T00:56:13.346Z,13.50
2019-03-12T00:57:13.328Z,11.60
2019-03-12T00:58:13.333Z,14.10
2019-03-12T00:59:13.351Z,10.80
2019-03-12T01:00:13.358Z,10.60
2019-03-12T01:01:13.375Z,17.20
2019-03-12T01:02:13.390Z,13.90
2019-03-12T01:03:13.401Z,19.30
2019-03-12T01:04:13.424Z,10.40
2019-03-12T01:05:13.432Z,13.40
2019-03-12T01:06:13.456Z,11.30
2019-03-12T01:07:13.461Z,17.40
2019-03-12T01:08:13.474Z,11.60
2019-03-12T01:09:13.497Z,10.10
2019-03-12T01:10:13.500Z,12.40
2019-03-12T01:11:13.513Z,13.00
2019-03-12T01:12:13.535Z,16.80
2019-03-12T01:13:13.544Z,17.10
2019-03-12T01:14:13.555Z,14.50
2019-03-12T01:15:13.575Z,19.30
2019-03-12T01:16:13.589Z,16.30
2019-03-12T01:17:13.598Z,18.50
2019-03-12T01:18:14.011Z,18.30
2019-03-12T01:19:13.630Z,13.60
2019-03-12T01:20:13.640Z,15.60
2019-03-12T01:21:13.657Z,14.10
2019-03-12T01:22:13.670Z,18.50
2019-03-12T01:23:13.683Z,13.50
2019-03-12T01:24:13.697Z,15.90
2019-03-12T01:25:13.717Z,16.10
2019-03-12T01:26:13.727Z,15.00
2019-03-12T01:27:13.745Z,17.10
2019-03-12T01:28:13.754Z,17.80
2019-03-12T01:29:13.771Z,16.20
2019-03-12T01:30:13.788Z,16.30
2019-03-12T01:31:13.803Z,9.10
2019-03-12T01:32:13.811Z,9.40
2019-03-12T01:33:13.832Z,12.40
2019-03-12T01:34:13.837Z,16.10
2019-03-12T01:35:13.860Z,16.90
2019-03-12T01:36:13.865Z,15.30
2019-03-12T01:37:13.883Z,14.60
2019-03-12T01:38:13.894Z,18.40
2019-03-12T01:39:13.909Z,12.30
2019-03-12T01:40:13.923Z,11.10
2019-03-12T01:41:13.939Z,20.70
2019-03-12T01:42:13.952Z,14.00
2019-03-12T01:43:13.973Z,16.60
2019-03-12T01:44:13.983Z,19.20
2019-03-12T01:45:13.997Z,17.20
2019-03-12T01:46:14.007Z,13.20
2019-03-12T01:47:14.018Z,13.50
2019-03-12T01:48:14.032Z,16.40
2019-03-12T01:49:14.056Z,19.60
2019-03-12T01:50:14.064Z,16.00
2019-03-12T01:51:14.073Z,21.30
2019-03-12T01:52:14.096Z,15.30
2019-03-12T01:53:14.105Z,12.30
2019-03-12T01:54:14.123Z,18.70
2019-03-12T01:55:14.143Z,9.90
2019-03-12T01:56:14.146Z,13.90
2019-03-12T01:57:14.164Z,22.20
2019-03-12T01:58:14.764Z,16.50
2019-03-12T01:59:14.187Z,16.50
2019-03-12T02:00:14.199Z,15.20
2019-03-12T02:01:14.216Z,11.60
2019-03-12T02:02:14.230Z,11.40
2019-03-12T02:03:14.241Z,13.40
2019-03-12T02:04:14.259Z,15.80
2019-03-12T02:05:15.022Z,13.20
2019-03-12T02:06:14.305Z,16.00
2019-03-12T02:07:14.303Z,14.80
2019-03-12T02:08:14.312Z,16.50
2019-03-12T02:09:14.331Z,15.20
2019-03-12T02:10:14.347Z,18.00
2019-03-12T02:11:14.363Z,10.70
2019-03-12T02:12:14.368Z,13.60
2019-03-12T02:13:14.386Z,16.90
2019-03-12T02:14:14.394Z,13.10
2019-03-12T02:15:14.407Z,15.80
2019-03-12T02:16:14.433Z,20.30
2019-03-12T02:17:14.435Z,17.10
2019-03-12T02:18:14.451Z,12.90
2019-03-12T02:19:14.466Z,14.20
2019-03-12T02:20:14.477Z,14.70
2019-03-12T02:21:14.492Z,17.60
2019-03-12T02:22:14.506Z,14.10
2019-03-12T02:23:14.520Z,12.90
2019-03-12T02:24:14.534Z,14.70
2019-03-12T02:25:14.548Z,16.60
2019-03-12T02:26:14.559Z,15.10
2019-03-12T02:27:14.572Z,15.80
2019-03-12T02:28:14.588Z,15.30
2019-03-12T02:29:14.600Z,13.40
2019-03-12T02:30:14.619Z,12.90
2019-03-12T02:31:14.643Z,17.10
2019-03-12T02:32:14.645Z,19.70
2019-03-12T02:33:14.673Z,21.30
2019-03-12T02:34:14.680Z,19.60
2019-03-12T02:35:14.690Z,20.80
2019-03-12T02:36:14.702Z,14.70
2019-03-12T02:37:14.720Z,16.10
2019-03-12T02:38:14.725Z,16.60
2019-03-12T02:39:14.737Z,16.80
2019-03-12T02:40:14.752Z,16.10
2019-03-12T02:41:14.890Z,13.80
2019-03-12T02:42:14.781Z,19.70
2019-03-12T02:43:14.797Z,16.20
2019-03-12T02:44:14.818Z,15.50
2019-03-12T02:45:14.826Z,17.60
2019-03-12T02:46:14.835Z,17.80
2019-03-12T02:47:14.847Z,12.90
2019-03-12T02:48:14.863Z,13.40
2019-03-12T02:49:14.886Z,11.70
2019-03-12T02:50:14.916Z,18.60
2019-03-12T02:51:14.907Z,18.60
2019-03-12T02:52:14.932Z,12.80
2019-03-12T02:53:14.933Z,13.90
2019-03-12T02:54:14.954Z,12.10
2019-03-12T02:55:14.958Z,22.00
2019-03-12T02:56:14.975Z,12.70
2019-03-12T02:57:14.983Z,14.90
2019-03-12T02:58:15.007Z,19.30
2019-03-12T02:59:15.010Z,15.60
2019-03-12T03:00:15.026Z,22.70
2019-03-12T03:01:15.047Z,16.30
2019-03-12T03:02:15.056Z,15.00
2019-03-12T03:03:15.065Z,18.40
2019-03-12T03:04:15.081Z,21.30
2019-03-12T03:05:15.093Z,18.90
2019-03-12T03:06:15.106Z,16.40
2019-03-12T03:07:15.119Z,16.40
2019-03-12T03:08:15.137Z,23.80
2019-03-12T03:09:15.148Z,18.00
2019-03-12T03:10:15.170Z,19.70
2019-03-12T03:11:15.176Z,20.10
2019-03-12T03:12:15.198Z,20.20
2019-03-12T03:13:15.231Z,17.50
2019-03-12T03:14:15.215Z,17.40
2019-03-12T03:15:15.236Z,21.10
2019-03-12T03:16:15.241Z,17.00
2019-03-12T03:17:15.259Z,16.90
2019-03-12T03:18:15.273Z,15.50
2019-03-12T03:19:15.285Z,22.10
2019-03-12T03:20:15.304Z,19.10
2019-03-12T03:21:15.309Z,22.70
2019-03-12T03:22:15.328Z,17.50
2019-03-12T03:23:15.337Z,16.30
2019-03-12T03:24:15.350Z,17.10
2019-03-12T03:25:15.365Z,19.20
2019-03-12T03:26:15.378Z,21.00
2019-03-12T03:27:15.392Z,23.80
2019-03-12T03:28:15.410Z,20.80
2019-03-12T03:29:15.419Z,22.30
2019-03-12T03:30:15.432Z,19.10
2019-03-12T03:31:15.447Z,26.60
2019-03-12T03:32:15.474Z,18.20
2019-03-12T03:33:15.553Z,23.80
2019-03-12T03:34:15.551Z,19.70
2019-03-12T03:35:15.747Z,22.40
2019-03-12T03:36:15.519Z,22.10
2019-03-12T03:37:15.530Z,20.50
2019-03-12T03:38:15.542Z,26.50
2019-03-12T03:39:15.555Z,20.40
2019-03-12T03:40:15.569Z,21.40
2019-03-12T03:41:15.579Z,28.40
2019-03-12T03:42:15.596Z,20.00
2019-03-12T03:43:15.752Z,21.60
2019-03-12T03:44:15.626Z,20.30
2019-03-12T03:45:15.637Z,17.90
2019-03-12T03:46:15.756Z,22.70
2019-03-12T03:47:19.726Z,24.50
2019-03-12T03:48:15.683Z,23.00
2019-03-12T03:49:15.687Z,20.40
2019-03-12T03:50:15.704Z,26.60
2019-03-12T03:51:15.715Z,20.90
2019-03-12T03:52:15.732Z,24.90
2019-03-12T03:53:15.745Z,24.40
2019-03-12T03:54:15.754Z,23.20
2019-03-12T03:55:15.776Z,27.50
2019-03-12T03:56:15.782Z,22.10
2019-03-12T03:57:15.795Z,24.00
2019-03-12T03:58:15.811Z,22.00
2019-03-12T03:59:15.829Z,24.90
2019-03-12T04:00:15.986Z,22.80
2019-03-12T04:01:15.853Z,18.30
2019-03-12T04:02:15.873Z,23.70
2019-03-12T04:03:15.878Z,22.00
2019-03-12T04:04:15.893Z,22.20
2019-03-12T04:05:15.906Z,19.20
2019-03-12T04:06:15.919Z,23.80
2019-03-12T04:07:15.934Z,25.90
2019-03-12T04:08:15.949Z,26.90
2019-03-12T04:09:15.964Z,27.20
2019-03-12T04:10:15.974Z,22.30
2019-03-12T04:11:15.994Z,21.70
2019-03-12T04:12:16.000Z,25.30
2019-03-12T04:13:16.012Z,23.60
2019-03-12T04:14:16.030Z,22.80
2019-03-12T04:15:16.040Z,21.10
2019-03-12T04:16:16.061Z,20.50
2019-03-12T04:17:16.072Z,25.50
2019-03-12T04:18:16.089Z,20.60
2019-03-12T04:19:16.094Z,26.60
2019-03-12T04:20:16.113Z,26.90
2019-03-12T04:21:16.123Z,25.40
2019-03-12T04:22:16.136Z,24.60
2019-03-12T04:23:16.436Z,25.60
2019-03-12T04:24:16.162Z,32.00
2019-03-12T04:25:16.174Z,22.20
2019-03-12T04:26:16.187Z,28.30
2019-03-12T04:27:16.206Z,25.60
2019-03-12T04:28:16.223Z,23.20
2019-03-12T04:29:16.228Z,27.30
2019-03-12T04:30:16.247Z,20.30
2019-03-12T04:31:16.254Z,23.40
2019-03-12T04:32:16.269Z,18.00
2019-03-12T04:33:16.293Z,25.50
2019-03-12T04:34:16.402Z,29.60
2019-03-12T04:35:16.311Z,23.40
2019-03-12T04:36:16.331Z,25.30
2019-03-12T04:37:16.346Z,23.30
2019-03-12T04:38:16.350Z,25.10
2019-03-12T04:39:16.364Z,22.50
2019-03-12T04:40:16.379Z,21.10
2019-03-12T04:41:16.393Z,19.90
2019-03-12T04:42:16.406Z,22.20
2019-03-12T04:43:16.419Z,19.30
2019-03-12T04:44:16.431Z,23.70
2019-03-12T04:45:16.445Z,18.00
2019-03-12T04:46:16.462Z,19.40
2019-03-12T04:47:16.475Z,19.00
2019-03-12T04:48:16.495Z,21.90
2019-03-12T04:49:16.503Z,24.30
2019-03-12T04:50:16.518Z,20.30
2019-03-12T04:51:16.531Z,24.40
2019-03-12T04:52:16.544Z,22.80
2019-03-12T04:53:16.616Z,21.10
2019-03-12T04:54:16.574Z,21.70
2019-03-12T04:55:16.585Z,18.90
2019-03-12T04:56:16.599Z,26.30
2019-03-12T04:57:16.613Z,19.80
2019-03-12T04:58:16.655Z,19.90
2019-03-12T04:59:16.643Z,16.20
2019-03-12T05:00:16.656Z,15.00
2019-03-12T05:01:16.699Z,21.10
2019-03-12T05:02:16.686Z,19.40
2019-03-12T05:03:16.692Z,20.30
2019-03-12T05:04:16.713Z,21.80
2019-03-12T05:05:17.223Z,16.30
2019-03-12T05:06:19.533Z,15.70
2019-03-12T05:07:16.751Z,17.00
2019-03-12T05:08:16.763Z,18.20
2019-03-12T05:09:16.783Z,20.00
2019-03-12T05:10:16.794Z,15.30
2019-03-12T05:11:16.810Z,18.40
2019-03-12T05:12:16.821Z,20.80
2019-03-12T05:13:16.839Z,20.90
2019-03-12T05:14:16.851Z,20.60
2019-03-12T05:15:16.870Z,23.90
2019-03-12T05:16:16.879Z,17.60
2019-03-12T05:17:16.897Z,19.20
2019-03-12T05:18:16.904Z,17.20
2019-03-12T05:19:16.918Z,17.70
2019-03-12T05:20:16.964Z,17.00
2019-03-12T05:21:16.945Z,23.20
2019-03-12T05:22:16.967Z,17.90
2019-03-12T05:23:16.970Z,20.80
2019-03-12T05:24:16.990Z,21.50
2019-03-12T05:25:17.000Z,23.60
2019-03-12T05:26:17.016Z,23.00
2019-03-12T05:27:17.027Z,20.90
2019-03-12T05:28:17.045Z,14.60
2019-03-12T05:29:17.137Z,20.00
2019-03-12T05:30:17.164Z,19.80
2019-03-12T05:31:17.084Z,18.60
2019-03-12T05:32:17.101Z,15.30
2019-03-12T05:33:17.111Z,25.80
2019-03-12T05:34:17.133Z,20.40
2019-03-12T05:35:17.209Z,18.70
2019-03-12T05:36:17.165Z,16.70
2019-03-12T05:37:17.175Z,17.30
2019-03-12T05:38:17.191Z,16.90
2019-03-12T05:39:17.199Z,20.50
2019-03-12T05:40:17.217Z,20.10
2019-03-12T05:41:17.227Z,15.50
2019-03-12T05:42:17.238Z,16.60
2019-03-12T05:43:17.258Z,17.40
2019-03-12T05:44:17.265Z,22.60
2019-03-12T05:45:17.283Z,21.40
2019-03-12T05:46:17.300Z,16.10
2019-03-12T05:47:17.310Z,14.70
2019-03-12T05:48:17.324Z,17.10
2019-03-12T05:49:17.340Z,16.90
2019-03-12T05:50:17.359Z,15.40
2019-03-12T05:51:17.363Z,19.10
2019-03-12T05:52:17.382Z,23.80
2019-03-12T05:53:17.392Z,14.80
2019-03-12T05:54:17.414Z,16.30
2019-03-12T05:55:17.422Z,14.80
2019-03-12T05:56:17.445Z,16.60
2019-03-12T05:57:17.532Z,16.10
2019-03-12T05:58:17.463Z,20.00
2019-03-12T05:59:17.573Z,20.00
2019-03-12T06:00:17.501Z,19.50
2019-03-12T06:01:17.503Z,19.40
2019-03-12T06:02:17.519Z,38.50
2019-03-12T06:03:17.531Z,19.80
2019-03-12T06:04:17.546Z,18.50
2019-03-12T06:05:17.558Z,15.80
2019-03-12T06:06:17.575Z,15.10
2019-03-12T06:07:17.586Z,16.00
2019-03-12T06:08:17.600Z,14.10
2019-03-12T06:09:29.489Z,15.40
2019-03-12T06:10:17.631Z,14.90
2019-03-12T06:11:17.710Z,15.00
2019-03-12T06:12:17.658Z,16.10
2019-03-12T06:13:17.672Z,15.70
2019-03-12T06:14:17.698Z,14.10
2019-03-12T06:15:17.704Z,16.40
2019-03-12T06:16:17.721Z,17.90
2019-03-12T06:17:17.726Z,16.80
2019-03-12T06:18:17.740Z,13.00
2019-03-12T06:19:17.762Z,18.60
2019-03-12T06:20:17.776Z,15.90
2019-03-12T06:21:17.785Z,11.60
2019-03-12T06:22:17.803Z,17.70
2019-03-12T06:23:17.810Z,22.20
2019-03-12T06:24:17.836Z,18.60
2019-03-12T06:25:17.911Z,18.10
2019-03-12T06:26:17.855Z,18.00
2019-03-12T06:27:18.368Z,17.80
2019-03-12T06:28:17.894Z,15.40
2019-03-12T06:29:17.907Z,16.60
2019-03-12T06:30:17.914Z,21.10
2019-03-12T06:31:17.939Z,14.70
2019-03-12T06:32:17.938Z,23.00
2019-03-12T06:33:17.951Z,14.90
2019-03-12T06:34:17.972Z,14.50
2019-03-12T06:35:17.983Z,22.90
2019-03-12T06:36:17.995Z,16.90
2019-03-12T06:37:18.010Z,17.80
2019-03-12T06:38:18.026Z,17.10
2019-03-12T06:39:18.046Z,16.00
2019-03-12T06:40:18.053Z,18.40
2019-03-12T06:41:18.067Z,17.10
2019-03-12T06:42:18.090Z,20.00
2019-03-12T06:43:18.097Z,16.40
2019-03-12T06:44:18.119Z,20.00
2019-03-12T06:45:18.127Z,16.00
2019-03-12T06:46:18.147Z,19.20
2019-03-12T06:47:18.156Z,17.30
2019-03-12T06:48:18.168Z,15.20
2019-03-12T06:49:18.185Z,18.90
2019-03-12T06:50:18.265Z,15.10
2019-03-12T06:51:18.212Z,19.70
2019-03-12T06:52:18.226Z,15.00
2019-03-12T06:53:18.243Z,16.00
2019-03-12T06:54:18.264Z,19.50
2019-03-12T06:55:18.276Z,15.80
2019-03-12T06:56:18.286Z,22.00
2019-03-12T06:57:18.298Z,23.10
2019-03-12T06:58:18.315Z,14.20
2019-03-12T06:59:18.331Z,21.40
2019-03-12T07:00:18.344Z,18.50
2019-03-12T07:01:18.359Z,15.70
2019-03-12T07:02:18.379Z,12.50
2019-03-12T07:03:18.387Z,13.10
2019-03-12T07:04:18.408Z,15.80
2019-03-12T07:05:18.419Z,14.90
2019-03-12T07:06:18.434Z,15.40
2019-03-12T07:07:18.456Z,10.80
2019-03-12T07:08:18.465Z,15.50
2019-03-12T07:09:18.479Z,16.60
2019-03-12T07:10:18.493Z,11.40
2019-03-12T07:11:18.507Z,16.30
2019-03-12T07:12:18.520Z,15.40
2019-03-12T07:13:18.535Z,12.30
2019-03-12T07:14:18.558Z,13.70
2019-03-12T07:15:18.570Z,11.40
2019-03-12T07:16:18.583Z,11.20
2019-03-12T07:17:18.600Z,17.80
2019-03-12T07:18:18.614Z,9.90
2019-03-12T07:19:18.623Z,15.30
2019-03-12T07:20:18.645Z,11.10
2019-03-12T07:21:18.657Z,13.00
2019-03-12T07:22:18.669Z,12.50
2019-03-12T07:23:18.689Z,18.80
2019-03-12T07:24:18.698Z,13.20
2019-03-12T07:25:18.731Z,15.50
2019-03-12T07:26:18.735Z,14.40
2019-03-12T07:27:18.745Z,9.90
2019-03-12T07:28:18.760Z,14.80
2019-03-12T07:29:18.775Z,15.40
2019-03-12T07:30:18.789Z,15.80
2019-03-12T07:31:18.937Z,19.50
2019-03-12T07:32:18.821Z,14.60
2019-03-12T07:33:18.833Z,13.30
2019-03-12T07:34:18.851Z,13.10
2019-03-12T07:35:18.866Z,13.50
2019-03-12T07:36:18.881Z,10.90
2019-03-12T07:37:18.899Z,12.50
2019-03-12T07:38:18.914Z,14.70
2019-03-12T07:39:18.931Z,19.10
2019-03-12T07:40:20.293Z,27.40
2019-03-12T07:41:25.218Z,20.80
2019-03-12T07:42:18.972Z,19.30
2019-03-12T07:43:18.989Z,17.80
2019-03-12T07:44:18.998Z,17.70
2019-03-12T07:45:19.013Z,17.20
2019-03-12T07:46:19.032Z,16.00
2019-03-12T07:47:19.042Z,14.50
2019-03-12T07:48:19.061Z,14.90
2019-03-12T07:49:19.074Z,10.90
2019-03-12T07:50:19.093Z,18.80
2019-03-12T07:51:19.104Z,10.80
2019-03-12T07:52:19.126Z,21.90
2019-03-12T07:53:19.137Z,24.40
2019-03-12T07:54:19.150Z,25.10
2019-03-12T07:55:19.165Z,14.00
2019-03-12T07:56:19.182Z,14.30
2019-03-12T07:57:19.201Z,12.60
2019-03-12T07:58:19.213Z,18.80
2019-03-12T07:59:19.225Z,16.80
2019-03-12T08:00:19.251Z,17.80
2019-03-12T08:01:19.258Z,15.40
2019-03-12T08:02:19.271Z,19.20
2019-03-12T08:03:19.291Z,13.40
2019-03-12T08:04:19.310Z,14.70
2019-03-12T08:05:19.320Z,14.00
2019-03-12T08:06:19.334Z,12.80
2019-03-12T08:07:19.353Z,10.50
2019-03-12T08:08:19.365Z,14.90
2019-03-12T08:09:19.378Z,14.40
2019-03-12T08:10:19.397Z,14.80
2019-03-12T08:11:19.411Z,14.80
2019-03-12T08:12:19.426Z,17.90
2019-03-12T08:13:19.447Z,14.00
2019-03-12T08:14:19.455Z,12.20
2019-03-12T08:15:23.344Z,18.00
2019-03-12T08:16:19.486Z,15.90
2019-03-12T08:17:19.503Z,14.00
2019-03-12T08:18:19.518Z,13.00
2019-03-12T08:19:19.537Z,11.80
2019-03-12T08:20:19.550Z,9.40
2019-03-12T08:21:22.601Z,16.50
2019-03-12T08:22:19.578Z,12.20
2019-03-12T08:23:19.595Z,10.80
2019-03-12T08:24:19.609Z,13.50
2019-03-12T08:25:19.633Z,12.50
2019-03-12T08:26:19.644Z,11.90
2019-03-12T08:27:19.655Z,12.90
2019-03-12T08:28:19.673Z,12.40
2019-03-12T08:29:19.688Z,9.10
2019-03-12T08:30:19.702Z,15.40
2019-03-12T08:31:19.768Z,13.90
2019-03-12T08:32:19.741Z,12.80
2019-03-12T08:33:19.756Z,64.80
2019-03-12T08:34:19.765Z,30.00
2019-03-12T08:35:19.778Z,17.10
2019-03-12T08:36:19.794Z,12.50
2019-03-12T08:37:19.809Z,13.30
2019-03-12T08:38:19.828Z,9.70
2019-03-12T08:39:19.846Z,9.70
2019-03-12T08:40:19.855Z,15.50
2019-03-12T08:41:19.871Z,13.10
2019-03-12T08:42:19.889Z,14.20
2019-03-12T08:43:19.904Z,13.90
2019-03-12T08:44:19.924Z,11.60
2019-03-12T08:45:19.934Z,13.10
2019-03-12T08:46:22.294Z,11.90
2019-03-12T08:47:19.966Z,13.40
2019-03-12T08:48:19.987Z,12.10
2019-03-12T08:49:19.996Z,13.30
2019-03-12T08:50:20.086Z,14.80
2019-03-12T08:51:20.030Z,15.20
2019-03-12T08:52:20.049Z,13.90
2019-03-12T08:53:20.058Z,12.40
2019-03-12T08:54:21.490Z,13.30
2019-03-12T08:55:20.096Z,12.20
2019-03-12T08:56:20.106Z,14.90
2019-03-12T08:57:20.126Z,13.40
2019-03-12T08:58:20.140Z,13.00
2019-03-12T08:59:20.156Z,12.10
2019-03-12T09:00:20.169Z,13.10
2019-03-12T09:01:20.238Z,13.00
2019-03-12T09:02:20.202Z,13.30
2019-03-12T09:03:20.217Z,11.90
2019-03-12T09:04:20.240Z,11.90
2019-03-12T09:05:20.251Z,15.20
2019-03-12T09:06:20.265Z,15.50
2019-03-12T09:07:20.281Z,15.30
2019-03-12T09:08:20.297Z,12.20
2019-03-12T09:09:20.321Z,14.70
2019-03-12T09:10:20.415Z,14.40
2019-03-12T09:11:20.353Z,15.90
2019-03-12T09:12:20.361Z,15.90
2019-03-12T09:13:20.384Z,10.50
2019-03-12T09:14:20.401Z,13.00
2019-03-12T09:15:20.409Z,13.50
2019-03-12T09:16:20.427Z,11.70
2019-03-12T09:17:20.442Z,11.90
2019-03-12T09:18:20.468Z,11.00
2019-03-12T09:19:20.478Z,14.90
2019-03-12T09:20:20.492Z,8.30
2019-03-12T09:21:20.516Z,14.00
2019-03-12T09:22:20.525Z,13.80
2019-03-12T09:23:20.581Z,15.30
2019-03-12T09:24:20.566Z,18.90
2019-03-12T09:25:20.577Z,12.20
2019-03-12T09:26:20.600Z,13.00
2019-03-12T09:27:20.616Z,10.30
2019-03-12T09:28:20.625Z,12.70
2019-03-12T09:29:20.645Z,13.90
2019-03-12T09:30:20.660Z,13.30
2019-03-12T09:31:20.673Z,12.10
2019-03-12T09:32:20.697Z,10.40
2019-03-12T09:33:20.707Z,10.70
2019-03-12T09:34:20.726Z,10.00
2019-03-12T09:35:20.743Z,14.40
2019-03-12T09:36:20.785Z,13.40
2019-03-12T09:37:21.240Z,12.90
2019-03-12T09:38:20.796Z,9.90
2019-03-12T09:39:20.817Z,8.90
2019-03-12T09:40:20.825Z,9.40
2019-03-12T09:41:20.843Z,14.50
2019-03-12T09:42:20.866Z,10.60
2019-03-12T09:43:20.876Z,18.60
2019-03-12T09:44:20.894Z,8.00
2019-03-12T09:45:20.907Z,9.60
2019-03-12T09:46:20.923Z,13.20
2019-03-12T09:47:20.947Z,11.70
2019-03-12T09:48:20.960Z,11.70
2019-03-12T09:49:20.975Z,11.20
2019-03-12T09:50:20.994Z,13.20
2019-03-12T09:51:21.013Z,15.70
2019-03-12T09:52:21.032Z,13.50
2019-03-12T09:53:21.041Z,9.90
2019-03-12T09:54:21.060Z,13.30
2019-03-12T09:55:21.078Z,12.00
2019-03-12T09:56:21.094Z,12.40
2019-03-12T09:57:21.114Z,16.50
2019-03-12T09:58:21.126Z,14.00
2019-03-12T09:59:21.141Z,10.70
2019-03-12T10:00:21.167Z,9.50
2019-03-12T10:01:21.183Z,10.40
2019-03-12T10:02:21.195Z,10.50
2019-03-12T10:03:21.210Z,12.90
2019-03-12T10:04:21.276Z,14.40
2019-03-12T10:05:21.245Z,8.40
2019-03-12T10:06:21.263Z,11.60
2019-03-12T10:07:21.277Z,11.90
2019-03-12T10:08:21.294Z,9.40
2019-03-12T10:09:21.316Z,12.30
2019-03-12T10:10:21.331Z,6.80
2019-03-12T10:11:21.349Z,10.30
2019-03-12T10:12:21.364Z,10.00
2019-03-12T10:13:21.381Z,12.10
2019-03-12T10:14:21.404Z,11.70
2019-03-12T10:15:21.419Z,13.50
2019-03-12T10:16:21.432Z,14.30
2019-03-12T10:17:21.447Z,12.10
2019-03-12T10:18:21.474Z,12.90
2019-03-12T10:19:21.483Z,11.20
2019-03-12T10:20:21.501Z,13.50
2019-03-12T10:21:21.516Z,9.00
2019-03-12T10:22:21.537Z,11.20
2019-03-12T10:23:21.557Z,12.40
2019-03-12T10:24:21.568Z,11.80
2019-03-12T10:25:21.584Z,14.70
2019-03-12T10:26:21.608Z,11.50
2019-03-12T10:27:21.641Z,9.20
2019-03-12T10:28:21.655Z,10.90
2019-03-12T10:29:21.653Z,10.50
2019-03-12T10:30:21.670Z,15.10
2019-03-12T10:31:21.687Z,6.70
2019-03-12T10:32:21.715Z,9.00
2019-03-12T10:33:21.924Z,11.90
2019-03-12T10:34:29.757Z,11.00
2019-03-12T10:35:21.757Z,11.20
2019-03-12T10:36:21.956Z,7.20
2019-03-12T10:37:21.790Z,11.20
2019-03-12T10:38:21.813Z,11.00
2019-03-12T10:39:22.577Z,7.60
2019-03-12T10:40:21.842Z,11.70
2019-03-12T10:41:21.864Z,9.00
2019-03-12T10:42:21.977Z,11.10
2019-03-12T10:43:21.893Z,8.20
2019-03-12T10:44:21.912Z,6.60
2019-03-12T10:45:21.981Z,8.80
2019-03-12T10:46:21.946Z,10.60
2019-03-12T10:47:21.962Z,10.20
2019-03-12T10:48:21.983Z,13.30
2019-03-12T10:49:21.998Z,12.30
2019-03-12T10:50:22.023Z,10.40
2019-03-12T10:51:22.038Z,12.90
2019-03-12T10:52:22.050Z,13.00
2019-03-12T10:53:22.070Z,9.00
2019-03-12T10:54:22.087Z,9.20
2019-03-12T10:55:22.102Z,12.20
2019-03-12T10:56:22.119Z,9.50
2019-03-12T10:57:22.136Z,6.30
2019-03-12T10:58:22.166Z,8.50
2019-03-12T10:59:22.174Z,11.40
2019-03-12T11:00:22.191Z,10.20
2019-03-12T11:01:22.213Z,10.00
2019-03-12T11:02:22.227Z,7.20
2019-03-12T11:03:22.247Z,10.20
2019-03-12T11:04:22.259Z,9.50
2019-03-12T11:05:22.279Z,13.20
2019-03-12T11:06:22.295Z,11.70
2019-03-12T11:07:22.312Z,12.90
2019-03-12T11:08:22.332Z,14.80
2019-03-12T11:09:22.348Z,11.70
2019-03-12T11:10:22.373Z,7.30
2019-03-12T11:11:22.384Z,9.60
2019-03-12T11:12:22.399Z,8.10
2019-03-12T11:13:22.425Z,7.40
2019-03-12T11:14:22.436Z,10.10
2019-03-12T11:15:22.453Z,10.30
2019-03-12T11:16:22.477Z,11.50
2019-03-12T11:17:22.492Z,10.70
2019-03-12T11:18:22.509Z,9.00
2019-03-12T11:19:22.526Z,9.10
2019-03-12T11:20:22.546Z,10.10
2019-03-12T11:21:22.648Z,9.50
2019-03-12T11:22:22.582Z,12.80
2019-03-12T11:23:22.600Z,9.10
2019-03-12T11:24:22.615Z,13.30
2019-03-12T11:25:27.595Z,8.20
2019-03-12T11:26:22.651Z,9.70
2019-03-12T11:27:22.668Z,8.00
2019-03-12T11:28:22.694Z,10.10
2019-03-12T11:29:22.719Z,9.10
2019-03-12T11:30:22.720Z,11.80
2019-03-12T11:31:22.739Z,12.50
2019-03-12T11:32:22.762Z,8.00
2019-03-12T11:33:22.818Z,10.20
2019-03-12T11:34:22.793Z,8.90
2019-03-12T11:35:22.809Z,11.10
2019-03-12T11:36:22.843Z,8.50
2019-03-12T11:37:23.002Z,13.50
2019-03-12T11:38:22.868Z,8.30
2019-03-12T11:39:22.883Z,7.80
2019-03-12T11:40:22.970Z,7.30
2019-03-12T11:41:23.045Z,12.90
2019-03-12T11:42:23.005Z,8.20
2019-03-12T11:43:22.961Z,9.80
2019-03-12T11:44:23.035Z,8.40
2019-03-12T11:45:35.737Z,7.50
2019-03-12T11:46:23.064Z,12.40
2019-03-12T11:47:23.025Z,11.10
2019-03-12T11:48:23.044Z,10.10
2019-03-12T11:49:23.083Z,10.90
2019-03-12T11:50:23.125Z,8.80
2019-03-12T11:51:23.102Z,12.50
2019-03-12T11:52:23.125Z,8.30
2019-03-12T11:53:23.153Z,11.90
2019-03-12T11:54:23.156Z,11.70
2019-03-12T11:55:23.173Z,12.70
2019-03-12T11:56:23.208Z,9.20
2019-03-12T11:57:23.207Z,11.00
2019-03-12T11:58:23.224Z,7.30
2019-03-12T11:59:23.246Z,7.90
2019-03-12T12:00:23.263Z,11.20
2019-03-12T12:01:23.284Z,11.00
2019-03-12T12:02:23.301Z,13.70
2019-03-12T12:03:23.315Z,11.60
2019-03-12T12:04:23.339Z,6.40
2019-03-12T12:05:23.355Z,8.30
2019-03-12T12:06:23.373Z,9.60
2019-03-12T12:07:23.392Z,9.00
2019-03-12T12:08:23.408Z,8.60
2019-03-12T12:09:23.449Z,6.70
2019-03-12T12:10:23.474Z,8.30
2019-03-12T12:11:23.467Z,8.20
2019-03-12T12:12:23.490Z,7.90
2019-03-12T12:13:23.501Z,6.50
2019-03-12T12:14:23.520Z,13.70
2019-03-12T12:15:23.538Z,7.00
2019-03-12T12:16:23.557Z,7.40
2019-03-12T12:17:23.573Z,9.00
2019-03-12T12:18:23.601Z,8.20
2019-03-12T12:19:23.614Z,10.30
2019-03-12T12:20:29.483Z,7.00
2019-03-12T12:21:23.664Z,7.90
2019-03-12T12:22:23.667Z,11.30
2019-03-12T12:23:23.686Z,8.50
2019-03-12T12:24:26.544Z,9.90
2019-03-12T12:25:23.724Z,4.50
2019-03-12T12:26:23.740Z,7.50
2019-03-12T12:27:23.756Z,5.40
2019-03-12T12:28:23.777Z,6.60
2019-03-12T12:29:23.801Z,6.80
2019-03-12T12:30:23.813Z,10.00
2019-03-12T12:31:23.832Z,11.30
2019-03-12T12:32:23.848Z,6.70
2019-03-12T12:33:23.869Z,8.40
2019-03-12T12:34:23.885Z,9.10
2019-03-12T12:35:23.911Z,7.00
2019-03-12T12:36:23.923Z,8.70
2019-03-12T12:37:23.944Z,6.00
2019-03-12T12:38:23.960Z,6.40
2019-03-12T12:39:23.978Z,6.00
2019-03-12T12:40:23.996Z,7.50
2019-03-12T12:41:24.016Z,3.80
2019-03-12T12:42:24.033Z,7.30
2019-03-12T12:43:24.061Z,7.60
2019-03-12T12:44:24.066Z,7.50
2019-03-12T12:45:24.088Z,7.20
2019-03-12T12:46:24.107Z,6.50
2019-03-12T12:47:24.122Z,7.70
2019-03-12T12:48:24.147Z,6.30
2019-03-12T12:49:24.163Z,8.10
2019-03-12T12:50:24.179Z,7.60
2019-03-12T12:51:24.194Z,5.60
2019-03-12T12:52:24.217Z,8.70
2019-03-12T12:53:24.242Z,5.50
2019-03-12T12:54:24.251Z,9.10
2019-03-12T12:55:24.275Z,9.20
2019-03-12T12:56:24.369Z,6.90